Terminal Aerodrome Forecast
Issued by NWS Albany, NY

Home | Current Version | Previous Version | Text Only | Print | Product List | Glossary On
Versions: 1 2 3 4 5 6 7 8 9 10 11 12 13 14 15 16 17 18 19
274
FTUS41 KALY 221843 AAA
TAFGFL
TAF AMD
KGFL 221843Z 2219/2318 29012G20KT P6SM SCT090
     FM222100 31014G22KT P6SM BKN080
     FM230100 31006KT P6SM SKC
     FM230600 VRB03KT P6SM SKC
     FM231400 23010KT P6SM SKC=

USA.gov is the U.S. government's official web portal to all federal, state and local government web resources and services.